Time;durP1;ratioP1;P1;durP2;ratioP2;P2;SDS_P1;SDS_P2;PMS_P1;PMS_P2;Temp;Humidity;BMP_temperature;BMP_pressure;BME280_temperature;BME280_humidity;BME280_pressure;Samples;Min_cycle;Max_cycle;Signal;HPM_P1;HPM_P2
2022/02/02 00:00:40;;;;;;;4.60;2.90;;;8.50;66.00;;;;;;6271468;28;20131;-68
2022/02/02 00:03:46;;;;;;;5.50;2.83;;;8.50;66.00;;;;;;6273273;28;20055;-68
2022/02/02 00:07:00;;;;;;;7.25;2.35;;;8.50;66.10;;;;;;6261361;28;20039;-68
2022/02/02 00:10:14;;;;;;;4.82;2.05;;;8.50;66.00;;;;;;6265985;28;20085;-68
2022/02/02 00:14:27;;;;;;;4.32;2.15;;;8.50;66.00;;;;;;6254051;28;20102;-68
2022/02/02 00:20:06;;;;;;;5.40;2.55;;;8.70;65.70;;;;;;6265403;28;20028;-68
2022/02/02 00:23:15;;;;;;;4.90;2.75;;;8.70;65.60;;;;;;6270136;28;20078;-67
2022/02/02 00:26:22;;;;;;;6.90;3.33;;;8.70;65.40;;;;;;6249439;28;20695;-68
2022/02/02 00:29:30;;;;;;;5.03;2.75;;;8.70;65.20;;;;;;6267597;28;20040;-71
2022/02/02 00:35:58;;;;;;;7.28;2.90;;;8.70;65.20;;;;;;6252428;28;20041;-68
2022/02/02 00:38:59;;;;;;;6.50;3.10;;;8.70;65.30;;;;;;6271433;28;20380;-67
2022/02/02 00:42:02;;;;;;;5.57;3.38;;;8.70;65.20;;;;;;6273051;28;20032;-69
2022/02/02 00:45:03;;;;;;;6.05;3.22;;;8.70;66.00;;;;;;6283487;28;20037;-68
2022/02/02 00:48:04;;;;;;;5.75;3.58;;;8.70;65.20;;;;;;6271692;28;20049;-67
2022/02/02 00:51:06;;;;;;;5.03;3.40;;;8.60;65.10;;;;;;6271963;28;20044;-68
2022/02/02 00:54:09;;;;;;;5.50;3.83;;;8.70;65.20;;;;;;6250461;28;20033;-68
2022/02/02 00:57:10;;;;;;;9.75;3.90;;;8.70;65.10;;;;;;6249052;28;21035;-68
2022/02/02 01:00:12;;;;;;;8.32;4.10;;;8.70;65.00;;;;;;6249394;28;20041;-69
2022/02/02 01:03:14;;;;;;;7.82;4.47;;;8.70;65.00;;;;;;6251934;28;20040;-68
2022/02/02 01:06:18;;;;;;;7.28;4.40;;;8.80;65.00;;;;;;6249065;28;20048;-68
2022/02/02 01:09:28;;;;;;;11.38;3.72;;;8.80;64.90;;;;;;6261249;28;20049;-68
2022/02/02 01:19:02;;;;;;;9.00;4.05;;;8.90;64.60;;;;;;6268769;28;20056;-68
2022/02/02 01:28:28;;;;;;;6.22;3.95;;;8.80;64.80;;;;;;6286414;28;20473;-69
2022/02/02 01:31:29;;;;;;;10.07;4.30;;;8.70;64.90;;;;;;6272419;28;20037;-68
2022/02/02 01:34:30;;;;;;;9.52;4.70;;;8.70;64.90;;;;;;6276544;28;20480;-68
2022/02/02 01:37:31;;;;;;;9.43;4.72;;;8.70;65.00;;;;;;6276071;28;20441;-70
2022/02/02 01:40:37;;;;;;;7.60;4.25;;;8.70;65.00;;;;;;6274626;28;20032;-68
2022/02/02 01:44:28;;;;;;;7.53;4.32;;;8.70;65.00;;;;;;6269735;28;20415;-68
2022/02/02 01:47:03;;;;;;;8.18;4.55;;;8.70;65.00;;;;;;6269094;28;20095;-70
2022/02/02 01:56:39;;;;;;;7.68;4.38;;;8.60;65.20;;;;;;6224421;28;20065;-69
2022/02/02 01:59:41;;;;;;;6.82;3.40;;;8.70;65.40;;;;;;6233185;28;20638;-68
2022/02/02 02:02:42;;;;;;;9.50;3.95;;;8.70;65.40;;;;;;6223051;28;20050;-68
2022/02/02 02:05:43;;;;;;;7.28;3.70;;;8.50;65.30;;;;;;6228502;28;20167;-68
2022/02/02 02:08:45;;;;;;;11.65;3.92;;;8.60;65.40;;;;;;6224804;28;21869;-69
2022/02/02 02:12:00;;;;;;;7.75;3.83;;;8.60;65.60;;;;;;6238761;28;20174;-68
2022/02/02 02:15:05;;;;;;;9.75;4.30;;;8.50;65.80;;;;;;6227101;28;20095;-68
2022/02/02 02:18:06;;;;;;;5.38;3.50;;;8.50;65.90;;;;;;6208812;28;20065;-69
2022/02/02 02:21:12;;;;;;;6.70;3.80;;;8.40;66.20;;;;;;6219193;28;20080;-68
2022/02/02 02:24:13;;;;;;;7.05;3.75;;;8.40;66.40;;;;;;6233834;28;20033;-69
2022/02/02 02:27:17;;;;;;;7.75;4.00;;;8.40;66.50;;;;;;6226159;28;20260;-69
2022/02/02 02:30:43;;;;;;;6.75;3.85;;;8.30;66.60;;;;;;6264233;28;20044;-69
2022/02/02 02:34:10;;;;;;;7.75;4.15;;;8.30;66.80;;;;;;6272133;28;20096;-68
2022/02/02 02:57:01;;;;;;;11.23;5.72;;;8.20;67.80;;;;;;6214709;28;20049;-68
2022/02/02 03:30:19;;;;;;;15.48;6.88;;;8.00;68.50;;;;;;6169708;28;20202;-69
2022/02/02 04:05:47;;;;;;;11.40;5.25;;;8.30;68.50;;;;;;6264944;28;20500;-69
2022/02/02 04:08:48;;;;;;;11.13;6.00;;;8.30;68.40;;;;;;6270636;28;20029;-68
2022/02/02 04:12:09;;;;;;;9.50;5.00;;;8.40;68.40;;;;;;6247981;28;20048;-69
2022/02/02 04:38:08;;;;;;;8.52;4.82;;;8.50;67.40;;;;;;6259562;28;20129;-68
2022/02/02 04:55:23;;;;;;;7.93;4.15;;;8.40;67.40;;;;;;6262526;28;20541;-68
2022/02/02 05:07:16;;;;;;;11.60;6.03;;;8.40;67.50;;;;;;6254973;28;23238;-68
2022/02/02 05:49:21;;;;;;;12.88;5.50;;;8.40;67.60;;;;;;6143550;28;20129;-68
2022/02/02 05:52:21;;;;;;;11.90;6.32;;;8.40;67.50;;;;;;6150738;28;20068;-68
2022/02/02 05:55:22;;;;;;;12.50;5.80;;;8.40;67.70;;;;;;6147999;28;20096;-71
2022/02/02 05:58:28;;;;;;;13.10;6.30;;;8.40;67.70;;;;;;6243521;28;20052;-72
2022/02/02 06:01:29;;;;;;;13.25;6.25;;;8.40;67.60;;;;;;6242771;28;20037;-73
2022/02/02 06:04:31;;;;;;;11.20;5.60;;;8.40;67.60;;;;;;6251767;28;21119;-72
2022/02/02 06:07:41;;;;;;;14.38;6.35;;;8.30;67.40;;;;;;6233928;28;20489;-71
2022/02/02 06:10:43;;;;;;;12.75;6.05;;;8.50;67.50;;;;;;6225425;28;20064;-72
2022/02/02 06:13:49;;;;;;;12.07;5.43;;;8.50;67.30;;;;;;6231548;28;20029;-72
2022/02/02 06:16:58;;;;;;;13.50;5.78;;;8.60;67.20;;;;;;6234127;28;20021;-72
2022/02/02 06:19:59;;;;;;;16.08;7.40;;;8.60;67.00;;;;;;6259810;28;20485;-72
2022/02/02 06:23:14;;;;;;;11.77;6.05;;;8.60;66.90;;;;;;6246046;28;20037;-72
2022/02/02 06:26:16;;;;;;;14.25;6.90;;;8.50;66.90;;;;;;6266969;28;20032;-71
2022/02/02 06:29:17;;;;;;;13.07;6.97;;;8.60;67.00;;;;;;6261559;28;20021;-74
2022/02/02 06:32:24;;;;;;;15.50;7.30;;;8.60;66.80;;;;;;6261524;28;20036;-72
2022/02/02 06:35:26;;;;;;;13.43;7.28;;;8.50;66.60;;;;;;6258030;28;20051;-72
2022/02/02 06:38:29;;;;;;;15.05;7.47;;;8.50;66.70;;;;;;6274274;28;20017;-72
2022/02/02 06:41:30;;;;;;;15.73;7.28;;;8.50;66.80;;;;;;6277508;28;20083;-71
2022/02/02 06:44:32;;;;;;;13.00;6.93;;;8.50;66.90;;;;;;6258717;28;20029;-72
2022/02/02 06:47:35;;;;;;;17.90;7.75;;;8.60;66.90;;;;;;6273732;28;20357;-72
2022/02/02 06:50:40;;;;;;;17.63;7.75;;;8.60;66.80;;;;;;6259705;28;20032;-72
2022/02/02 06:53:46;;;;;;;15.50;7.30;;;8.60;66.70;;;;;;6251997;28;20094;-71
2022/02/02 06:57:02;;;;;;;18.80;7.68;;;8.60;66.70;;;;;;6272924;28;20032;-72
2022/02/02 07:00:16;;;;;;;19.75;8.20;;;8.70;66.70;;;;;;6265853;28;20091;-71
2022/02/02 07:03:38;;;;;;;15.98;7.88;;;8.70;66.50;;;;;;6268856;28;20454;-71
2022/02/02 07:06:59;;;;;;;13.68;7.18;;;8.70;66.40;;;;;;6250655;28;20089;-70
2022/02/02 07:17:18;;;;;;;19.52;7.78;;;8.80;66.40;;;;;;6181485;28;20369;-71
2022/02/02 07:20:35;;;;;;;15.25;7.72;;;8.80;66.40;;;;;;6182301;28;20606;-71
2022/02/02 07:36:35;;;;;;;17.00;7.93;;;9.00;66.10;;;;;;6153825;28;20062;-72
2022/02/02 07:39:39;;;;;;;19.67;8.93;;;9.10;66.10;;;;;;6150876;28;20449;-71
2022/02/02 07:42:45;;;;;;;18.42;8.32;;;9.10;66.00;;;;;;6120466;28;20038;-71
2022/02/02 07:45:56;;;;;;;16.15;7.78;;;9.10;66.00;;;;;;6138473;28;20046;-72
2022/02/02 07:48:57;;;;;;;19.75;8.57;;;9.10;65.90;;;;;;6127705;28;20558;-71
2022/02/02 07:51:59;;;;;;;17.60;8.15;;;9.20;66.00;;;;;;6127338;28;20045;-73
2022/02/02 07:55:02;;;;;;;18.08;8.68;;;9.20;65.90;;;;;;6129631;28;20026;-70
2022/02/02 07:58:05;;;;;;;14.82;7.25;;;9.30;65.70;;;;;;6137187;28;20039;-71
2022/02/02 08:01:06;;;;;;;22.10;8.80;;;9.30;65.60;;;;;;6143392;28;20051;-72
2022/02/02 08:04:07;;;;;;;18.58;8.00;;;9.20;65.50;;;;;;6135866;28;20058;-71
2022/02/02 08:07:12;;;;;;;18.42;7.97;;;9.20;65.70;;;;;;6123124;28;20097;-71
2022/02/02 08:10:18;;;;;;;17.30;8.30;;;9.20;65.90;;;;;;6119308;28;20046;-73
2022/02/02 08:13:25;;;;;;;16.60;6.78;;;9.30;66.00;;;;;;6215221;28;20041;-71
2022/02/02 08:16:26;;;;;;;16.20;7.28;;;9.30;66.00;;;;;;6237120;28;20032;-72
2022/02/02 08:19:27;;;;;;;11.68;6.10;;;9.30;65.80;;;;;;6241540;28;20067;-71
2022/02/02 08:22:29;;;;;;;57.10;22.17;;;9.40;65.70;;;;;;6239326;28;20040;-71
2022/02/02 08:25:32;;;;;;;7.85;4.75;;;9.50;65.70;;;;;;6255059;28;20044;-71
2022/02/02 08:28:33;;;;;;;13.32;6.13;;;9.50;65.50;;;;;;6239638;28;20053;-71
2022/02/02 08:31:35;;;;;;;14.38;6.80;;;9.60;65.40;;;;;;6267480;28;20021;-71
2022/02/02 08:34:43;;;;;;;11.90;5.82;;;9.70;65.30;;;;;;6266340;28;20325;-71
2022/02/02 08:37:48;;;;;;;12.57;6.18;;;9.80;65.10;;;;;;6263467;28;20039;-71
2022/02/02 08:41:02;;;;;;;13.07;6.57;;;9.90;64.90;;;;;;6248736;28;20032;-73
2022/02/02 08:44:11;;;;;;;13.80;5.95;;;10.00;64.50;;;;;;6248243;28;20082;-72
2022/02/02 08:47:16;;;;;;;13.95;6.53;;;10.10;64.30;;;;;;6264598;28;20052;-72
2022/02/02 08:50:26;;;;;;;12.00;6.07;;;10.20;64.00;;;;;;6279805;28;20110;-72
2022/02/02 08:53:33;;;;;;;14.00;6.70;;;10.30;63.60;;;;;;6267640;28;20029;-72
2022/02/02 08:59:51;;;;;;;20.88;8.23;;;10.50;63.40;;;;;;6259146;28;20146;-71
2022/02/02 09:05:18;;;;;;;22.30;10.32;;;10.50;63.30;;;;;;6267309;28;20065;-70
2022/02/02 09:06:12;;;;;;;22.15;8.45;;;10.50;63.40;;;;;;6249220;28;20032;-71
2022/02/02 09:09:20;;;;;;;16.70;8.10;;;10.40;63.30;;;;;;6228930;28;20387;-71
2022/02/02 09:35:34;;;;;;;12.07;5.75;;;11.00;62.60;;;;;;6185689;28;20467;-72
2022/02/02 09:38:35;;;;;;;9.52;4.25;;;11.10;62.40;;;;;;6170548;28;20041;-71
2022/02/02 09:41:48;;;;;;;;;;;;;;;;;;;;;
2022/02/02 09:44:40;;;;;;;18.20;5.25;;;10.90;62.40;;;;;;6189905;28;20117;-72
2022/02/02 09:47:46;;;;;;;13.23;6.65;;;10.90;62.70;;;;;;6187951;28;20053;-72
2022/02/02 09:50:52;;;;;;;10.13;4.88;;;10.90;62.60;;;;;;6181854;28;20058;-74
2022/02/02 09:54:09;;;;;;;9.75;4.88;;;10.90;62.50;;;;;;6186560;28;20042;-72
2022/02/02 10:00:33;;;;;;;14.27;6.35;;;11.00;62.60;;;;;;6221684;28;20087;-73
2022/02/02 10:10:34;;;;;;;19.73;8.73;;;11.00;62.40;;;;;;6257073;28;20036;-71
2022/02/02 10:14:13;;;;;;;17.10;7.70;;;10.90;62.60;;;;;;6253772;28;20090;-72
2022/02/02 10:17:12;;;;;;;16.70;8.52;;;10.90;62.90;;;;;;6253636;28;20126;-71
2022/02/02 10:20:21;;;;;;;24.08;9.52;;;10.90;63.30;;;;;;6254573;28;20032;-72
2022/02/02 10:23:27;;;;;;;19.25;8.80;;;11.00;63.60;;;;;;6255266;28;20040;-71
2022/02/02 10:26:27;;;;;;;18.40;8.32;;;11.20;63.40;;;;;;6256790;28;20044;-71
2022/02/02 10:29:37;;;;;;;15.95;8.15;;;11.60;62.80;;;;;;6257914;28;20021;-71
2022/02/02 10:32:47;;;;;;;18.52;8.10;;;12.00;62.40;;;;;;6246081;28;20027;-72
2022/02/02 10:35:50;;;;;;;19.65;9.43;;;12.30;61.70;;;;;;6262355;28;20636;-72
2022/02/02 10:39:07;;;;;;;18.52;8.20;;;12.50;61.20;;;;;;6263285;28;20041;-71
2022/02/02 10:42:08;;;;;;;18.33;9.00;;;12.60;61.20;;;;;;6262291;28;20072;-72
2022/02/02 10:45:36;;;;;;;14.70;7.93;;;12.80;61.30;;;;;;6262346;28;20032;-71
2022/02/02 10:48:49;;;;;;;15.10;7.28;;;13.00;60.90;;;;;;6257927;28;20083;-71
2022/02/02 10:52:04;;;;;;;17.92;8.18;;;13.30;60.10;;;;;;6260092;28;20040;-70
2022/02/02 11:01:44;;;;;;;11.45;5.43;;;14.00;58.30;;;;;;6269484;28;20021;-71
2022/02/02 11:08:05;;;;;;;32.47;12.32;;;14.20;57.70;;;;;;6266048;28;20115;-72
2022/02/02 11:11:06;;;;;;;19.67;8.43;;;14.30;57.10;;;;;;6249801;28;20035;-71
2022/02/02 11:14:30;;;;;;;11.20;5.00;;;14.30;56.90;;;;;;6263452;28;20096;-72
2022/02/02 11:17:38;;;;;;;14.40;5.65;;;14.40;56.70;;;;;;6263026;28;20515;-71
2022/02/02 11:20:41;;;;;;;9.57;4.85;;;14.50;56.50;;;;;;6266159;28;20036;-71
2022/02/02 11:23:48;;;;;;;14.00;5.35;;;14.70;56.50;;;;;;6265037;28;20075;-73
2022/02/02 11:26:50;;;;;;;8.80;4.77;;;14.90;56.00;;;;;;6264497;28;20121;-71
2022/02/02 11:29:51;;;;;;;8.50;4.15;;;15.10;55.60;;;;;;6266402;28;20274;-72
2022/02/02 11:33:00;;;;;;;11.63;4.65;;;15.30;54.70;;;;;;6266578;28;20021;-71
2022/02/02 11:36:21;;;;;;;10.05;4.93;;;15.20;55.10;;;;;;6253108;28;20047;-71
2022/02/02 11:40:03;;;;;;;18.35;6.53;;;15.20;54.80;;;;;;6284399;28;20028;-72
2022/02/02 11:43:15;;;;;;;11.55;5.80;;;15.20;54.70;;;;;;6280407;28;20421;-72
2022/02/02 11:47:06;;;;;;;12.52;5.65;;;15.20;54.50;;;;;;6279282;28;20029;-72
2022/02/02 11:50:08;;;;;;;8.40;4.32;;;15.10;54.80;;;;;;6280010;28;20031;-73
2022/02/02 11:53:09;;;;;;;10.18;3.80;;;15.30;54.70;;;;;;6264187;28;20040;-71
2022/02/02 11:56:10;;;;;;;15.05;4.68;;;15.40;54.30;;;;;;6250292;28;20083;-72
2022/02/02 11:59:43;;;;;;;7.13;4.15;;;15.50;54.10;;;;;;6264332;28;20054;-72
2022/02/02 12:09:38;;;;;;;15.68;5.95;;;16.30;53.20;;;;;;6258781;28;20040;-72
2022/02/02 12:20:02;;;;;;;3.38;2.33;;;17.70;50.20;;;;;;6264166;28;20331;-72
2022/02/02 12:58:49;;;;;;;0.68;0.40;;;15.90;52.00;;;;;;6234054;28;20490;-70
2022/02/02 13:02:12;;;;;;;0.70;0.60;;;15.90;51.90;;;;;;6252861;28;20117;-71
2022/02/02 13:05:14;;;;;;;0.60;0.43;;;15.90;51.70;;;;;;6231526;28;20098;-71
2022/02/02 13:08:15;;;;;;;0.90;0.63;;;15.90;51.70;;;;;;6225062;28;20752;-73
2022/02/02 13:11:24;;;;;;;1.17;0.77;;;15.90;51.80;;;;;;6208816;28;20033;-71
2022/02/02 13:14:36;;;;;;;;;;;15.90;51.80;;;;;;6222262;28;20048;-71
2022/02/02 13:17:48;;;;;;;0.95;0.47;;;15.80;51.70;;;;;;6246237;28;20065;-71
2022/02/02 13:27:12;;;;;;;2.55;1.27;;;15.90;51.70;;;;;;6238849;28;20032;-70
2022/02/02 13:30:42;;;;;;;1.58;0.80;;;15.90;51.50;;;;;;6264655;28;20028;-71
2022/02/02 13:33:44;;;;;;;1.00;0.60;;;15.90;51.70;;;;;;6247896;28;20028;-71
2022/02/02 13:36:57;;;;;;;1.98;0.90;;;15.90;51.50;;;;;;6239906;28;20037;-71
2022/02/02 13:44:04;;;;;;;1.10;0.77;;;15.80;51.60;;;;;;6261760;28;20060;-71
2022/02/02 13:57:56;;;;;;;2.97;0.60;;;16.00;51.20;;;;;;6257627;28;20162;-71
2022/02/02 14:00:59;;;;;;;2.22;1.20;;;16.00;51.20;;;;;;6277062;28;20032;-71
2022/02/02 14:33:51;;;;;;;0.85;0.70;;;15.90;51.00;;;;;;6136682;28;20031;-72
2022/02/02 14:36:52;;;;;;;1.33;0.90;;;15.90;51.00;;;;;;6130408;28;20613;-71
2022/02/02 14:40:01;;;;;;;2.08;0.82;;;15.90;51.10;;;;;;6132800;28;20211;-72
2022/02/02 14:43:05;;;;;;;3.83;0.93;;;15.80;51.10;;;;;;6140436;28;20539;-72
2022/02/02 14:46:10;;;;;;;0.80;0.70;;;15.80;51.30;;;;;;6177737;28;20153;-72
2022/02/02 14:49:31;;;;;;;1.30;0.70;;;15.70;51.50;;;;;;6181689;28;20034;-72
2022/02/02 15:28:48;;;;;;;0.68;0.60;;;15.00;53.00;;;;;;6189088;28;20047;-72
2022/02/02 15:31:49;;;;;;;0.70;0.60;;;15.00;53.60;;;;;;6188961;28;20076;-72
2022/02/02 15:34:54;;;;;;;0.60;0.60;;;15.00;53.00;;;;;;6179005;28;20093;-73
2022/02/02 15:41:05;;;;;;;1.40;0.80;;;15.00;52.90;;;;;;6285615;28;20078;-72
2022/02/02 16:03:24;;;;;;;1.77;0.70;;;14.70;53.60;;;;;;6256085;28;20079;-72
2022/02/02 16:06:27;;;;;;;1.40;0.63;;;14.60;53.70;;;;;;6253907;28;20035;-70
2022/02/02 16:09:36;;;;;;;1.60;0.80;;;14.50;53.80;;;;;;6239935;28;20036;-69
2022/02/02 16:12:42;;;;;;;0.95;0.60;;;14.50;54.00;;;;;;6229260;28;20062;-69
2022/02/02 16:15:43;;;;;;;0.93;0.40;;;14.50;54.10;;;;;;6237421;28;20036;-69
2022/02/02 16:32:01;;;;;;;1.13;0.90;;;14.20;55.00;;;;;;6273813;28;20073;-70
2022/02/02 16:35:22;;;;;;;0.70;0.65;;;14.10;55.20;;;;;;6256095;28;20024;-70
2022/02/02 16:38:27;;;;;;;1.25;0.70;;;14.10;55.40;;;;;;6279710;28;20036;-70
2022/02/02 16:44:48;;;;;;;2.58;0.98;;;14.00;55.70;;;;;;6278420;28;20474;-70
2022/02/02 16:47:49;;;;;;;2.78;0.95;;;13.90;55.80;;;;;;6263749;28;20051;-69
2022/02/02 16:50:54;;;;;;;1.48;0.52;;;13.90;55.90;;;;;;6251452;28;20037;-69
2022/02/02 16:53:58;;;;;;;5.05;0.88;;;13.80;55.90;;;;;;6269694;28;20032;-70
2022/02/02 17:33:31;;;;;;;1.30;1.00;;;13.40;57.60;;;;;;6076090;29;20036;-71
2022/02/02 17:36:45;;;;;;;1.13;0.82;;;13.40;57.80;;;;;;6100271;29;20083;-69
2022/02/02 17:39:52;;;;;;;1.08;0.70;;;13.40;57.80;;;;;;6093572;29;20132;-70
2022/02/02 17:43:18;;;;;;;2.45;1.13;;;13.40;57.80;;;;;;6096633;29;20040;-68
2022/02/02 18:00:30;;;;;;;1.55;1.00;;;13.30;57.90;;;;;;6128831;28;20063;-70
2022/02/02 18:19:12;;;;;;;2.03;0.80;;;13.30;57.90;;;;;;6251136;28;20055;-69
2022/02/02 18:22:14;;;;;;;2.25;1.30;;;13.40;58.00;;;;;;6255451;28;20021;-69
2022/02/02 18:25:27;;;;;;;1.30;0.85;;;13.30;58.00;;;;;;6241829;28;20077;-69
2022/02/02 18:28:39;;;;;;;2.22;0.95;;;13.40;58.00;;;;;;6249395;28;20047;-69
2022/02/02 18:34:55;;;;;;;1.55;1.08;;;13.40;58.00;;;;;;6254013;28;20661;-70
2022/02/02 18:54:19;;;;;;;1.60;1.23;;;13.40;58.10;;;;;;6263918;28;20570;-71
2022/02/02 19:53:45;;;;;;;3.08;1.20;;;13.40;58.40;;;;;;6270648;28;20525;-69
2022/02/02 19:57:00;;;;;;;2.15;1.35;;;13.40;58.40;;;;;;6263530;28;20064;-69
2022/02/02 20:12:41;;;;;;;2.53;1.55;;;13.40;58.20;;;;;;6178183;28;20030;-70
2022/02/02 20:15:41;;;;;;;1.25;1.13;;;13.40;58.20;;;;;;6177669;28;20045;-71
2022/02/02 20:18:45;;;;;;;2.20;1.45;;;13.40;58.10;;;;;;6177430;28;20442;-71
2022/02/02 20:21:50;;;;;;;7.18;2.80;;;13.50;58.10;;;;;;6160358;28;20065;-70
2022/02/02 20:24:56;;;;;;;1.85;1.27;;;13.50;58.00;;;;;;6167039;28;20544;-71
2022/02/02 20:28:07;;;;;;;2.10;1.40;;;13.60;57.90;;;;;;6166292;28;20038;-71
2022/02/02 20:31:08;;;;;;;1.85;1.15;;;13.50;57.90;;;;;;6175367;28;20471;-71
2022/02/02 20:34:11;;;;;;;2.60;1.40;;;13.50;57.90;;;;;;6187558;28;20080;-69
2022/02/02 20:37:15;;;;;;;3.75;1.35;;;13.50;57.90;;;;;;6169600;28;20080;-71
2022/02/02 20:40:16;;;;;;;2.15;1.27;;;13.50;58.00;;;;;;6184605;28;20444;-70
2022/02/02 20:43:31;;;;;;;2.15;1.30;;;13.50;58.00;;;;;;6228711;28;20041;-71
2022/02/02 21:00:23;;;;;;;2.53;1.10;;;13.30;57.90;;;;;;6178256;28;20097;-71
2022/02/02 21:03:53;;;;;;;2.42;1.48;;;13.30;57.90;;;;;;6159871;28;20149;-71
2022/02/02 21:10:01;;;;;;;1.90;1.30;;;13.30;57.70;;;;;;6170355;28;20433;-71
2022/02/02 21:16:28;;;;;;;3.00;1.50;;;13.40;57.60;;;;;;6181812;28;20118;-71
2022/02/02 21:19:38;;;;;;;4.57;1.40;;;13.40;57.50;;;;;;6180551;28;20524;-71
2022/02/02 21:23:34;;;;;;;4.00;1.75;;;13.40;57.40;;;;;;6174796;28;20447;-71
2022/02/02 21:29:02;;;;;;;1.88;1.40;;;13.60;57.20;;;;;;6176699;28;20222;-71
2022/02/02 21:32:04;;;;;;;2.20;1.52;;;13.60;57.20;;;;;;6157746;28;20042;-70
2022/02/02 21:35:07;;;;;;;4.35;2.35;;;13.60;57.10;;;;;;6241473;28;20033;-71
2022/02/02 21:38:18;;;;;;;4.13;2.33;;;13.60;57.00;;;;;;6242183;28;20033;-70
2022/02/02 21:41:23;;;;;;;3.15;2.20;;;13.60;56.90;;;;;;6228307;28;20037;-72
2022/02/02 21:44:25;;;;;;;5.65;2.58;;;13.50;56.90;;;;;;6226438;28;20518;-70
2022/02/02 21:47:26;;;;;;;13.25;4.05;;;13.50;56.80;;;;;;6243398;28;20554;-70
2022/02/02 21:50:41;;;;;;;12.80;4.75;;;13.50;56.80;;;;;;6222989;28;20044;-71
2022/02/02 21:53:42;;;;;;;8.75;3.55;;;13.40;56.80;;;;;;6226247;28;20123;-69
2022/02/02 21:56:43;;;;;;;8.50;3.53;;;13.40;56.80;;;;;;6210510;28;20052;-69
2022/02/02 21:59:46;;;;;;;6.85;3.28;;;13.40;56.90;;;;;;6236838;28;20116;-69
2022/02/02 22:02:47;;;;;;;6.00;3.20;;;13.40;57.00;;;;;;6244548;28;20065;-69
2022/02/02 22:05:49;;;;;;;9.77;3.72;;;13.40;57.00;;;;;;6263761;28;20035;-69
2022/02/02 22:08:50;;;;;;;6.85;3.30;;;13.40;57.00;;;;;;6263669;28;20520;-70
2022/02/02 22:11:52;;;;;;;7.20;3.90;;;13.40;57.00;;;;;;6246956;28;20357;-68
2022/02/02 22:14:54;;;;;;;5.28;2.90;;;13.40;57.00;;;;;;6248494;28;20315;-70
2022/02/02 22:17:56;;;;;;;6.00;3.42;;;13.30;56.90;;;;;;6266064;28;20028;-69
2022/02/02 22:20:57;;;;;;;5.65;3.28;;;13.30;56.90;;;;;;6245759;28;20040;-69
2022/02/02 22:24:01;;;;;;;5.80;3.33;;;13.30;57.10;;;;;;6240121;28;20044;-69
2022/02/02 22:27:02;;;;;;;5.70;3.13;;;13.20;57.10;;;;;;6233320;28;20424;-70
2022/02/02 22:30:07;;;;;;;6.60;3.40;;;13.20;57.20;;;;;;6264361;28;20051;-69
2022/02/02 22:33:08;;;;;;;6.68;3.97;;;13.10;57.20;;;;;;6238305;28;20040;-70
2022/02/02 22:36:10;;;;;;;6.40;3.67;;;13.10;57.20;;;;;;6243409;28;20016;-69
2022/02/02 22:39:11;;;;;;;12.52;4.68;;;13.10;57.30;;;;;;6245359;28;20020;-68
2022/02/02 22:42:14;;;;;;;8.13;4.15;;;13.00;57.30;;;;;;6244010;28;20079;-69
2022/02/02 22:45:16;;;;;;;7.00;3.90;;;13.00;57.40;;;;;;6243613;28;20044;-71
2022/02/02 22:48:21;;;;;;;14.25;4.70;;;13.00;57.50;;;;;;6263478;28;20032;-70
2022/02/02 22:51:22;;;;;;;6.30;3.78;;;12.90;57.50;;;;;;6263688;28;20025;-70
2022/02/02 22:54:24;;;;;;;8.70;3.75;;;12.90;57.60;;;;;;6262359;28;20025;-71
2022/02/02 22:57:25;;;;;;;8.10;3.90;;;12.90;57.70;;;;;;6278564;28;20024;-69
2022/02/02 23:00:37;;;;;;;9.65;4.30;;;12.90;57.70;;;;;;6247212;28;20032;-70
2022/02/02 23:03:38;;;;;;;7.95;3.58;;;12.80;57.80;;;;;;6266234;28;20056;-69
2022/02/02 23:06:39;;;;;;;8.35;3.88;;;12.80;57.80;;;;;;6278813;28;20032;-69
2022/02/02 23:09:42;;;;;;;6.25;3.83;;;12.70;57.80;;;;;;6277590;28;20048;-69
2022/02/02 23:12:44;;;;;;;7.15;4.00;;;12.70;57.90;;;;;;6277876;28;20033;-68
2022/02/02 23:18:47;;;;;;;9.65;3.53;;;12.70;57.90;;;;;;6279149;28;20233;-67
2022/02/02 23:21:49;;;;;;;7.43;4.05;;;12.70;58.00;;;;;;6276761;28;20029;-68
2022/02/02 23:24:54;;;;;;;8.00;3.50;;;12.70;57.90;;;;;;6245425;28;20064;-67
2022/02/02 23:27:56;;;;;;;9.88;4.35;;;12.70;58.00;;;;;;6263870;28;20028;-68
2022/02/02 23:31:04;;;;;;;9.32;3.40;;;12.60;58.00;;;;;;6264496;28;20032;-68
2022/02/02 23:34:05;;;;;;;;;;;12.60;58.10;;;;;;6267389;28;20365;-66
2022/02/02 23:37:08;;;;;;;9.43;3.80;;;12.60;58.20;;;;;;6266561;28;19920;-68
2022/02/02 23:40:10;;;;;;;8.55;4.07;;;12.60;58.20;;;;;;6266991;28;20434;-68
2022/02/02 23:43:11;;;;;;;8.45;3.97;;;12.50;58.20;;;;;;6267843;28;20033;-67
2022/02/02 23:46:17;;;;;;;7.70;3.67;;;12.60;58.30;;;;;;6265318;28;20524;-67
2022/02/02 23:49:24;;;;;;;8.70;4.03;;;12.50;58.40;;;;;;6266083;28;20086;-67
2022/02/02 23:52:32;;;;;;;8.15;4.22;;;12.40;58.40;;;;;;6268337;28;20025;-68
2022/02/02 23:55:41;;;;;;;9.25;3.90;;;12.40;58.40;;;;;;6272916;28;20040;-65
2022/02/02 23:58:45;;;;;;;;;;;12.40;58.50;;;;;;6266479;28;20029;-68
